Time;durP1;ratioP1;P1;durP2;ratioP2;P2;SDS_P1;SDS_P2;PMS_P1;PMS_P2;Temp;Humidity;BMP_temperature;BMP_pressure;BME280_temperature;BME280_humidity;BME280_pressure;Samples;Min_cycle;Max_cycle;Signal;HPM_P1;HPM_P2
2023/05/26 00:01:22;;;;;;;3.63;3.33;;;;;;;;;;5047731;28;20226;-82
2023/05/26 00:03:50;;;;;;;4.07;3.67;;;;;;;;;;5048070;28;20254;-82
2023/05/26 00:06:20;;;;;;;3.90;3.60;;;;;;;;;;5047642;28;20296;-82
2023/05/26 00:08:47;;;;;;;5.33;3.00;;;;;;;;;;5047531;28;20212;-82
2023/05/26 00:11:14;;;;;;;3.10;2.53;;;;;;;;;;5047347;28;20209;-82
2023/05/26 00:13:41;;;;;;;2.80;2.60;;;;;;;;;;5043719;27;20217;-82
2023/05/26 00:16:09;;;;;;;2.80;2.50;;;;;;;;;;5043700;28;20200;-82
2023/05/26 00:18:35;;;;;;;3.30;3.03;;;;;;;;;;5047983;28;20202;-82
2023/05/26 00:21:03;;;;;;;3.20;2.53;;;;;;;;;;5047216;28;20222;-81
2023/05/26 00:23:30;;;;;;;2.67;2.40;;;;;;;;;;5047525;28;20748;-82
2023/05/26 00:25:56;;;;;;;4.87;2.57;;;;;;;;;;5047373;28;20205;-81
2023/05/26 00:28:23;;;;;;;5.07;2.33;;;;;;;;;;5046385;28;20206;-82
2023/05/26 00:30:50;;;;;;;3.33;2.33;;;;;;;;;;5046800;28;20214;-82
2023/05/26 00:33:18;;;;;;;2.67;2.47;;;;;;;;;;5047055;28;20254;-82
2023/05/26 00:35:45;;;;;;;3.83;2.73;;;;;;;;;;5047582;28;20254;-82
2023/05/26 00:38:12;;;;;;;5.10;2.80;;;;;;;;;;5046836;28;20673;-82
2023/05/26 00:40:38;;;;;;;2.67;2.47;;;;;;;;;;5046573;28;20218;-82
2023/05/26 00:43:05;;;;;;;3.80;2.50;;;;;;;;;;5047447;28;20241;-82
2023/05/26 00:45:32;;;;;;;2.63;2.43;;;;;;;;;;5047469;28;20194;-82
2023/05/26 00:47:59;;;;;;;3.13;2.83;;;;;;;;;;5046321;28;20232;-82
2023/05/26 00:50:27;;;;;;;2.53;2.30;;;;;;;;;;5047139;28;20263;-82
2023/05/26 00:52:53;;;;;;;3.17;1.93;;;;;;;;;;5047237;28;20204;-82
2023/05/26 00:55:21;;;;;;;3.03;2.77;;;;;;;;;;5042342;28;20196;-82
2023/05/26 00:57:48;;;;;;;4.50;2.90;;;;;;;;;;5038972;28;20227;-82
2023/05/26 01:00:15;;;;;;;3.87;2.53;;;;;;;;;;5046425;28;20771;-82
2023/05/26 01:02:44;;;;;;;2.83;2.63;;;;;;;;;;5047497;28;20202;-82
2023/05/26 01:05:15;;;;;;;4.60;2.87;;;;;;;;;;5047314;28;20204;-82
2023/05/26 01:07:43;;;;;;;4.40;2.83;;;;;;;;;;5046983;28;20578;-82
2023/05/26 01:10:10;;;;;;;3.00;2.70;;;;;;;;;;5046992;28;20209;-82
2023/05/26 01:12:45;;;;;;;3.93;2.93;;;;;;;;;;5046997;28;20200;-82
2023/05/26 01:15:14;;;;;;;4.23;3.10;;;;;;;;;;5047096;28;20701;-82
2023/05/26 01:17:46;;;;;;;3.07;2.83;;;;;;;;;;5046707;28;20296;-82
2023/05/26 01:20:19;;;;;;;3.60;3.07;;;;;;;;;;5046940;28;20279;-82
2023/05/26 01:23:10;;;;;;;3.30;3.00;;;;;;;;;;5047158;28;20213;-82
2023/05/26 01:25:46;;;;;;;2.80;2.60;;;;;;;;;;5046681;28;20222;-81
2023/05/26 01:28:17;;;;;;;2.90;2.70;;;;;;;;;;5047005;28;20202;-82
2023/05/26 01:30:44;;;;;;;2.97;2.53;;;;;;;;;;5033731;28;20738;-82
2023/05/26 01:33:11;;;;;;;3.17;2.60;;;;;;;;;;5046276;28;20215;-82
2023/05/26 01:35:38;;;;;;;3.83;2.80;;;;;;;;;;5046728;28;20198;-82
2023/05/26 01:38:05;;;;;;;2.87;2.67;;;;;;;;;;5046908;28;20658;-82
2023/05/26 01:40:32;;;;;;;4.10;2.73;;;;;;;;;;5046676;28;20576;-82
2023/05/26 01:43:03;;;;;;;3.67;3.37;;;;;;;;;;5050075;28;20210;-81
2023/05/26 01:45:35;;;;;;;3.30;3.00;;;;;;;;;;5050300;28;20266;-82
2023/05/26 01:48:03;;;;;;;3.93;3.53;;;;;;;;;;5049877;28;20762;-83
2023/05/26 01:50:35;;;;;;;2.93;2.73;;;;;;;;;;5049971;28;20273;-82
2023/05/26 01:53:07;;;;;;;3.30;3.00;;;;;;;;;;5049195;28;20202;-82
2023/05/26 01:55:34;;;;;;;3.67;3.30;;;;;;;;;;5050092;28;20231;-82
2023/05/26 01:58:03;;;;;;;4.23;3.10;;;;;;;;;;5049213;28;20279;-82
2023/05/26 02:00:31;;;;;;;3.10;2.80;;;;;;;;;;5050086;27;20199;-82
2023/05/26 02:02:57;;;;;;;8.63;3.10;;;;;;;;;;5049226;28;20559;-82
2023/05/26 02:05:24;;;;;;;3.17;2.87;;;;;;;;;;5050066;28;20270;-82
2023/05/26 02:07:52;;;;;;;3.17;2.97;;;;;;;;;;5050105;28;20253;-82
2023/05/26 02:10:19;;;;;;;3.23;3.03;;;;;;;;;;5049723;28;20705;-83
2023/05/26 02:12:46;;;;;;;3.17;2.97;;;;;;;;;;5047674;28;20660;-82
2023/05/26 02:15:12;;;;;;;4.43;3.03;;;;;;;;;;5038039;28;20203;-82
2023/05/26 02:17:41;;;;;;;5.50;3.57;;;;;;;;;;5048656;28;20649;-82
2023/05/26 02:20:09;;;;;;;3.43;3.13;;;;;;;;;;5049601;28;20247;-82
2023/05/26 02:22:36;;;;;;;3.87;3.07;;;;;;;;;;5048993;28;20237;-82
2023/05/26 02:25:03;;;;;;;4.60;3.77;;;;;;;;;;5049610;28;20203;-82
2023/05/26 02:27:30;;;;;;;3.43;3.13;;;;;;;;;;5049383;28;20199;-82
2023/05/26 02:29:56;;;;;;;3.73;3.43;;;;;;;;;;5049333;28;20237;-82
2023/05/26 02:32:23;;;;;;;6.23;3.57;;;;;;;;;;5048660;28;20215;-83
2023/05/26 02:34:51;;;;;;;4.10;3.80;;;;;;;;;;5048394;28;20214;-82
2023/05/26 02:37:18;;;;;;;3.97;3.50;;;;;;;;;;5035611;28;20259;-82
2023/05/26 02:39:45;;;;;;;3.57;3.27;;;;;;;;;;5049210;28;20213;-83
2023/05/26 02:42:12;;;;;;;3.27;3.07;;;;;;;;;;5049168;28;20578;-83
2023/05/26 02:44:39;;;;;;;5.87;2.97;;;;;;;;;;5048868;28;20233;-82
2023/05/26 02:47:06;;;;;;;3.33;3.03;;;;;;;;;;5049526;28;20321;-82
2023/05/26 02:49:33;;;;;;;4.77;3.87;;;;;;;;;;5049220;28;20208;-82
2023/05/26 02:52:01;;;;;;;5.47;3.17;;;;;;;;;;5048207;28;20642;-82
2023/05/26 02:54:28;;;;;;;3.03;2.77;;;;;;;;;;5048872;28;20639;-82
2023/05/26 02:56:54;;;;;;;3.60;3.30;;;;;;;;;;5048888;28;20267;-83
2023/05/26 02:59:21;;;;;;;2.70;2.50;;;;;;;;;;5048867;28;20209;-82
2023/05/26 03:01:48;;;;;;;3.83;3.30;;;;;;;;;;5040276;28;20664;-83
2023/05/26 03:04:15;;;;;;;3.83;3.53;;;;;;;;;;5028688;28;20270;-82
2023/05/26 03:06:42;;;;;;;3.47;3.17;;;;;;;;;;5047901;28;20242;-82
2023/05/26 03:09:10;;;;;;;4.87;2.70;;;;;;;;;;5049133;28;20212;-83
2023/05/26 03:11:37;;;;;;;3.17;2.97;;;;;;;;;;5048574;28;20203;-82
2023/05/26 03:14:04;;;;;;;5.70;3.33;;;;;;;;;;5039012;28;20199;-82
2023/05/26 03:16:30;;;;;;;5.37;4.17;;;;;;;;;;5049200;28;20569;-82
2023/05/26 03:18:57;;;;;;;5.13;4.07;;;;;;;;;;5048351;28;20591;-83
2023/05/26 03:21:24;;;;;;;4.17;3.77;;;;;;;;;;5048282;28;20226;-82
2023/05/26 03:23:51;;;;;;;7.93;3.70;;;;;;;;;;5027342;28;20218;-77
2023/05/26 03:26:20;;;;;;;5.80;3.50;;;;;;;;;;5048601;28;20202;-78
2023/05/26 03:28:47;;;;;;;5.67;4.30;;;;;;;;;;5047211;28;20293;-78
2023/05/26 03:31:14;;;;;;;5.03;4.53;;;;;;;;;;5048064;28;20259;-78
2023/05/26 03:33:41;;;;;;;8.20;4.80;;;;;;;;;;5047536;28;20210;-77
2023/05/26 03:36:08;;;;;;;4.70;4.30;;;;;;;;;;5047940;28;20203;-78
2023/05/26 03:38:35;;;;;;;7.07;4.33;;;;;;;;;;5046664;28;20586;-79
2023/05/26 03:41:03;;;;;;;6.97;5.37;;;;;;;;;;5034981;28;20226;-79
2023/05/26 03:43:31;;;;;;;7.30;6.60;;;;;;;;;;5047702;28;20210;-79
2023/05/26 03:46:00;;;;;;;4.80;4.23;;;;;;;;;;5048323;28;20202;-80
2023/05/26 03:48:27;;;;;;;4.33;3.30;;;;;;;;;;5046625;28;20298;-80
2023/05/26 03:50:54;;;;;;;4.27;3.83;;;;;;;;;;5016597;28;20208;-80
2023/05/26 03:53:20;;;;;;;6.40;5.03;;;;;;;;;;5021577;28;20205;-80
2023/05/26 03:55:47;;;;;;;4.20;3.80;;;;;;;;;;5048489;28;20210;-80
2023/05/26 03:58:14;;;;;;;3.87;3.57;;;;;;;;;;5041321;28;20570;-80
2023/05/26 04:00:46;;;;;;;5.27;3.17;;;;;;;;;;5041639;28;20272;-80
2023/05/26 04:03:13;;;;;;;3.33;3.03;;;;;;;;;;5035942;28;20222;-80
2023/05/26 04:05:40;;;;;;;3.50;3.20;;;;;;;;;;5020014;28;20759;-80
2023/05/26 04:08:07;;;;;;;3.73;2.93;;;;;;;;;;5047579;28;20212;-80
2023/05/26 04:10:34;;;;;;;6.53;2.90;;;;;;;;;;5034404;28;20683;-80
2023/05/26 04:13:00;;;;;;;2.97;2.73;;;;;;;;;;5047992;28;20213;-78
2023/05/26 04:15:27;;;;;;;3.27;2.97;;;;;;;;;;5041254;28;20207;-79
2023/05/26 04:17:55;;;;;;;3.73;3.43;;;;;;;;;;5046975;28;20671;-78
2023/05/26 04:20:22;;;;;;;2.87;2.67;;;;;;;;;;5047779;28;20205;-78
2023/05/26 04:22:49;;;;;;;5.03;3.63;;;;;;;;;;5047256;28;20785;-78
2023/05/26 04:25:16;;;;;;;3.47;3.17;;;;;;;;;;5047990;28;20209;-78
2023/05/26 04:27:43;;;;;;;6.27;3.43;;;;;;;;;;5046899;28;20299;-78
2023/05/26 04:30:10;;;;;;;4.73;3.27;;;;;;;;;;5047737;28;20202;-78
2023/05/26 04:32:37;;;;;;;4.63;4.03;;;;;;;;;;5047741;28;20207;-78
2023/05/26 04:35:06;;;;;;;3.73;3.43;;;;;;;;;;5047423;28;20216;-78
2023/05/26 04:37:33;;;;;;;3.30;3.07;;;;;;;;;;5046671;28;20208;-78
2023/05/26 04:40:00;;;;;;;3.70;3.23;;;;;;;;;;5046207;28;20613;-78
2023/05/26 04:42:27;;;;;;;4.77;3.70;;;;;;;;;;5047702;28;20231;-78
2023/05/26 04:44:55;;;;;;;4.87;2.90;;;;;;;;;;5048256;28;20267;-78
2023/05/26 04:47:22;;;;;;;4.30;3.37;;;;;;;;;;5046949;28;20226;-78
2023/05/26 04:49:48;;;;;;;3.87;3.47;;;;;;;;;;5047261;28;20746;-78
2023/05/26 04:52:17;;;;;;;4.53;2.80;;;;;;;;;;5046908;28;20260;-78
2023/05/26 04:54:43;;;;;;;3.33;2.60;;;;;;;;;;5047291;28;20681;-78
2023/05/26 04:57:10;;;;;;;3.17;2.97;;;;;;;;;;5046951;28;20704;-78
2023/05/26 04:59:38;;;;;;;2.93;2.57;;;;;;;;;;5047293;28;20206;-78
2023/05/26 05:02:05;;;;;;;2.87;2.67;;;;;;;;;;5046575;28;20307;-78
2023/05/26 05:04:32;;;;;;;2.77;2.57;;;;;;;;;;5047519;28;20643;-78
2023/05/26 05:06:59;;;;;;;4.67;3.70;;;;;;;;;;5047235;28;20684;-78
2023/05/26 05:09:27;;;;;;;3.23;2.93;;;;;;;;;;5047184;28;20301;-78
2023/05/26 05:11:54;;;;;;;3.40;3.07;;;;;;;;;;5046766;28;20771;-78
2023/05/26 05:14:21;;;;;;;3.10;2.80;;;;;;;;;;5046532;28;20650;-78
2023/05/26 05:16:47;;;;;;;5.70;3.80;;;;;;;;;;5048935;28;20216;-78
2023/05/26 05:19:14;;;;;;;3.23;3.00;;;;;;;;;;5050504;28;20214;-78
2023/05/26 05:21:41;;;;;;;15.77;3.90;;;;;;;;;;5050052;28;20233;-77
2023/05/26 05:24:08;;;;;;;2.87;2.57;;;;;;;;;;5050101;28;20213;-78
2023/05/26 05:26:37;;;;;;;4.17;2.80;;;;;;;;;;5050445;28;20655;-77
2023/05/26 05:29:04;;;;;;;3.83;3.47;;;;;;;;;;5050393;28;20309;-77
2023/05/26 05:31:31;;;;;;;4.93;3.13;;;;;;;;;;5050513;28;20212;-77
2023/05/26 05:33:57;;;;;;;2.70;2.50;;;;;;;;;;5049653;28;20205;-76
2023/05/26 05:36:24;;;;;;;3.10;2.90;;;;;;;;;;5050727;28;20629;-76
2023/05/26 05:38:51;;;;;;;6.57;3.20;;;;;;;;;;5050249;28;20221;-77
2023/05/26 05:41:18;;;;;;;3.40;2.80;;;;;;;;;;5050376;28;20213;-77
2023/05/26 05:43:47;;;;;;;4.00;3.70;;;;;;;;;;5049683;28;20260;-77
2023/05/26 05:46:13;;;;;;;4.90;3.47;;;;;;;;;;5050010;28;20213;-77
2023/05/26 05:48:42;;;;;;;3.87;3.57;;;;;;;;;;5048998;28;20281;-77
2023/05/26 05:51:09;;;;;;;3.80;3.37;;;;;;;;;;5050134;28;20282;-77
2023/05/26 05:53:35;;;;;;;4.17;3.87;;;;;;;;;;5049840;28;20224;-76
2023/05/26 05:56:08;;;;;;;3.23;3.03;;;;;;;;;;5050179;28;20202;-76
2023/05/26 05:58:35;;;;;;;3.70;3.40;;;;;;;;;;5049380;28;20204;-76
2023/05/26 06:01:03;;;;;;;3.97;3.67;;;;;;;;;;5050258;28;20213;-76
2023/05/26 06:03:30;;;;;;;3.70;3.50;;;;;;;;;;5049087;28;20236;-76
2023/05/26 06:05:56;;;;;;;7.90;4.00;;;;;;;;;;5050378;28;20213;-77
2023/05/26 06:08:23;;;;;;;4.10;3.63;;;;;;;;;;5049266;28;20208;-77
2023/05/26 06:10:50;;;;;;;3.40;3.10;;;;;;;;;;5049543;28;20213;-76
2023/05/26 06:13:17;;;;;;;4.20;3.43;;;;;;;;;;5043548;28;20690;-77
2023/05/26 06:15:44;;;;;;;4.23;3.53;;;;;;;;;;5042405;28;20252;-76
2023/05/26 06:18:12;;;;;;;4.20;3.80;;;;;;;;;;5049380;28;20209;-77
2023/05/26 06:20:39;;;;;;;5.07;3.90;;;;;;;;;;5049777;28;20697;-77
2023/05/26 06:23:06;;;;;;;6.13;4.83;;;;;;;;;;5049824;28;20315;-76
2023/05/26 06:25:33;;;;;;;6.43;5.83;;;;;;;;;;5049265;28;20210;-76
2023/05/26 06:28:00;;;;;;;4.57;4.17;;;;;;;;;;5049165;28;20718;-76
2023/05/26 06:30:26;;;;;;;3.90;3.60;;;;;;;;;;5049432;28;20206;-76
2023/05/26 06:32:53;;;;;;;4.90;3.63;;;;;;;;;;5049524;28;20687;-77
2023/05/26 06:35:22;;;;;;;4.37;3.13;;;;;;;;;;5048424;28;20259;-77
2023/05/26 06:37:48;;;;;;;3.87;3.57;;;;;;;;;;5041611;28;20206;-77
2023/05/26 06:40:15;;;;;;;3.60;3.30;;;;;;;;;;5044667;28;20286;-77
2023/05/26 06:42:42;;;;;;;7.63;3.87;;;;;;;;;;5048978;28;20775;-77
2023/05/26 06:45:09;;;;;;;3.40;3.20;;;;;;;;;;5049487;28;20208;-76
2023/05/26 06:47:36;;;;;;;4.43;2.57;;;;;;;;;;5049020;28;20227;-76
2023/05/26 06:50:03;;;;;;;3.57;2.60;;;;;;;;;;5048429;28;20571;-76
2023/05/26 06:52:31;;;;;;;3.03;2.73;;;;;;;;;;5048929;28;20207;-77
2023/05/26 06:54:58;;;;;;;3.97;3.07;;;;;;;;;;5048617;28;20212;-76
2023/05/26 06:57:24;;;;;;;17.10;11.93;;;;;;;;;;5049143;28;20208;-77
2023/05/26 06:59:51;;;;;;;6.10;5.50;;;;;;;;;;5048692;28;20213;-77
2023/05/26 07:02:18;;;;;;;6.90;5.97;;;;;;;;;;5049152;28;20221;-76
2023/05/26 07:04:45;;;;;;;5.17;4.50;;;;;;;;;;5048527;28;20296;-76
2023/05/26 07:07:14;;;;;;;4.50;4.10;;;;;;;;;;5048701;28;20209;-77
2023/05/26 07:09:42;;;;;;;5.40;3.90;;;;;;;;;;5049219;28;20212;-77
2023/05/26 07:12:10;;;;;;;2.90;2.67;;;;;;;;;;5048497;28;20209;-76
2023/05/26 07:14:37;;;;;;;3.40;3.10;;;;;;;;;;5049245;28;20625;-76
2023/05/26 07:17:04;;;;;;;2.60;2.40;;;;;;;;;;5048746;28;20213;-76
2023/05/26 07:19:31;;;;;;;3.23;2.93;;;;;;;;;;5048946;28;20264;-76
2023/05/26 07:21:57;;;;;;;4.27;3.87;;;;;;;;;;5048224;28;20211;-76
2023/05/26 07:24:24;;;;;;;3.03;2.73;;;;;;;;;;5048506;28;20198;-77
2023/05/26 07:26:52;;;;;;;4.23;3.03;;;;;;;;;;5038048;28;20213;-76
2023/05/26 07:29:19;;;;;;;3.00;2.80;;;;;;;;;;5045569;28;20205;-77
2023/05/26 07:31:46;;;;;;;4.50;3.50;;;;;;;;;;5048103;28;20201;-77
2023/05/26 07:34:13;;;;;;;4.87;3.60;;;;;;;;;;5048573;28;20202;-77
2023/05/26 07:36:40;;;;;;;4.40;4.00;;;;;;;;;;5048195;28;20239;-76
2023/05/26 07:39:07;;;;;;;5.53;3.57;;;;;;;;;;5047684;28;20200;-76
2023/05/26 07:41:35;;;;;;;3.97;3.67;;;;;;;;;;5048008;28;20226;-76
2023/05/26 07:44:03;;;;;;;3.50;3.30;;;;;;;;;;5047783;28;20240;-77
2023/05/26 07:46:30;;;;;;;3.57;3.20;;;;;;;;;;5048248;28;20228;-76
2023/05/26 07:48:57;;;;;;;3.97;3.53;;;;;;;;;;5047897;28;20212;-76
2023/05/26 07:51:23;;;;;;;3.57;3.23;;;;;;;;;;5047683;28;20603;-76
2023/05/26 07:53:50;;;;;;;4.17;3.77;;;;;;;;;;5048157;28;20206;-76
2023/05/26 07:56:18;;;;;;;3.87;3.57;;;;;;;;;;5048094;28;20201;-77
2023/05/26 07:58:45;;;;;;;3.87;3.53;;;;;;;;;;5047847;28;20209;-77
2023/05/26 08:01:13;;;;;;;4.10;3.80;;;;;;;;;;5047994;28;20266;-76
2023/05/26 08:03:40;;;;;;;4.57;4.17;;;;;;;;;;5047518;28;20784;-76
2023/05/26 08:06:07;;;;;;;4.77;4.37;;;;;;;;;;5047435;28;20209;-77
2023/05/26 08:08:33;;;;;;;4.07;3.53;;;;;;;;;;5048431;28;20286;-77
2023/05/26 08:11:00;;;;;;;4.67;4.27;;;;;;;;;;5048020;28;20213;-77
2023/05/26 08:13:27;;;;;;;7.60;4.30;;;;;;;;;;5047916;28;20205;-76
2023/05/26 08:15:53;;;;;;;4.57;4.17;;;;;;;;;;5047915;28;20344;-77
2023/05/26 08:18:22;;;;;;;3.70;3.50;;;;;;;;;;5047544;28;20570;-77
2023/05/26 08:20:52;;;;;;;5.33;3.97;;;;;;;;;;5047906;28;20266;-78
2023/05/26 08:23:19;;;;;;;4.03;3.60;;;;;;;;;;5047541;28;20237;-78
2023/05/26 08:25:45;;;;;;;3.27;3.03;;;;;;;;;;5048367;28;20206;-78
2023/05/26 08:28:12;;;;;;;3.43;3.13;;;;;;;;;;5047496;28;20258;-78
2023/05/26 08:30:39;;;;;;;3.27;3.07;;;;;;;;;;5047517;28;20202;-78
2023/05/26 08:33:06;;;;;;;3.60;3.30;;;;;;;;;;5048025;28;20213;-78
2023/05/26 08:35:34;;;;;;;3.37;3.17;;;;;;;;;;5047296;28;20667;-78
2023/05/26 08:38:00;;;;;;;5.00;3.00;;;;;;;;;;5047211;28;20206;-78
2023/05/26 08:40:27;;;;;;;3.27;3.03;;;;;;;;;;5047479;28;20254;-78
2023/05/26 08:42:57;;;;;;;3.37;3.13;;;;;;;;;;5047329;28;20719;-78
2023/05/26 08:45:24;;;;;;;4.37;2.90;;;;;;;;;;5047144;28;20766;-79
2023/05/26 08:47:52;;;;;;;3.20;2.90;;;;;;;;;;5048032;28;20234;-78
2023/05/26 08:50:19;;;;;;;3.40;3.00;;;;;;;;;;5048755;27;20209;-79
2023/05/26 08:52:48;;;;;;;3.70;3.10;;;;;;;;;;5051486;28;20210;-79
2023/05/26 08:55:15;;;;;;;5.57;3.03;;;;;;;;;;5051951;28;20198;-79
2023/05/26 08:57:42;;;;;;;2.27;2.17;;;;;;;;;;5050794;28;20220;-79
2023/05/26 09:00:12;;;;;;;2.67;2.47;;;;;;;;;;5050767;28;20255;-79
2023/05/26 09:02:39;;;;;;;3.17;2.87;;;;;;;;;;5050657;28;20245;-79
2023/05/26 09:05:07;;;;;;;6.30;3.67;;;;;;;;;;5050866;28;20193;-79
2023/05/26 09:07:33;;;;;;;3.00;2.80;;;;;;;;;;5039233;28;20221;-79
2023/05/26 09:10:19;;;;;;;4.20;2.70;;;;;;;;;;5035971;28;20246;-79
2023/05/26 09:12:46;;;;;;;4.20;2.80;;;;;;;;;;5050179;28;20206;-79
2023/05/26 09:15:13;;;;;;;2.53;2.43;;;;;;;;;;5051431;28;20197;-79
2023/05/26 09:17:42;;;;;;;4.03;3.13;;;;;;;;;;5049920;28;20822;-79
2023/05/26 09:20:09;;;;;;;3.13;2.90;;;;;;;;;;5050842;28;20286;-79
2023/05/26 09:22:36;;;;;;;4.30;3.53;;;;;;;;;;5049994;27;20687;-79
2023/05/26 09:25:04;;;;;;;4.23;3.63;;;;;;;;;;5051016;28;20262;-79
2023/05/26 09:27:31;;;;;;;4.37;3.60;;;;;;;;;;5050315;28;20678;-79
2023/05/26 09:30:00;;;;;;;4.73;3.37;;;;;;;;;;5050432;28;20206;-79
2023/05/26 09:32:27;;;;;;;5.07;3.03;;;;;;;;;;5050663;28;20199;-79
2023/05/26 09:34:56;;;;;;;2.90;2.60;;;;;;;;;;5050495;28;20198;-79
2023/05/26 09:37:28;;;;;;;3.60;3.20;;;;;;;;;;5036476;28;20198;-79
2023/05/26 09:39:54;;;;;;;3.63;3.33;;;;;;;;;;5050535;28;20218;-79
2023/05/26 09:42:23;;;;;;;3.50;3.20;;;;;;;;;;5050028;28;20255;-79
2023/05/26 09:44:53;;;;;;;4.17;2.70;;;;;;;;;;5050583;28;20234;-79
2023/05/26 09:47:22;;;;;;;3.20;3.00;;;;;;;;;;5050147;28;20248;-79
2023/05/26 09:49:52;;;;;;;3.13;2.77;;;;;;;;;;5049925;28;20737;-79
2023/05/26 09:52:19;;;;;;;5.50;3.17;;;;;;;;;;5050374;28;20201;-79
2023/05/26 09:54:46;;;;;;;4.63;2.93;;;;;;;;;;5049722;28;20206;-79
2023/05/26 09:57:14;;;;;;;3.60;2.93;;;;;;;;;;5050068;28;20664;-79
2023/05/26 09:59:43;;;;;;;5.60;3.20;;;;;;;;;;5049519;28;20242;-79
2023/05/26 10:02:20;;;;;;;3.63;2.73;;;;;;;;;;5049032;28;20209;-79
2023/05/26 10:04:47;;;;;;;2.87;2.63;;;;;;;;;;5049670;28;20618;-79
2023/05/26 10:07:14;;;;;;;5.20;2.93;;;;;;;;;;5049700;28;20259;-79
2023/05/26 10:09:43;;;;;;;3.00;2.80;;;;;;;;;;5049946;28;20661;-80
2023/05/26 10:12:11;;;;;;;3.20;2.90;;;;;;;;;;5050017;28;20632;-79
2023/05/26 10:14:38;;;;;;;3.63;3.17;;;;;;;;;;5050466;28;20205;-79
2023/05/26 10:17:07;;;;;;;4.33;2.97;;;;;;;;;;5049913;28;20258;-80
2023/05/26 10:19:33;;;;;;;2.50;2.30;;;;;;;;;;5049343;28;20209;-79
2023/05/26 10:22:05;;;;;;;2.87;2.67;;;;;;;;;;5049959;28;20264;-79
2023/05/26 10:24:34;;;;;;;3.97;2.67;;;;;;;;;;5049722;28;20601;-80
2023/05/26 10:27:05;;;;;;;3.10;2.90;;;;;;;;;;5049011;28;20746;-80
2023/05/26 10:29:35;;;;;;;3.23;2.83;;;;;;;;;;5049441;28;20289;-80
2023/05/26 10:32:02;;;;;;;4.00;3.57;;;;;;;;;;5049820;28;20652;-79
2023/05/26 10:34:42;;;;;;;3.17;2.87;;;;;;;;;;5049183;28;20592;-80
2023/05/26 10:37:16;;;;;;;2.43;2.27;;;;;;;;;;5049245;28;20672;-80
2023/05/26 10:39:42;;;;;;;7.03;2.80;;;;;;;;;;5049267;28;20206;-80
2023/05/26 10:42:17;;;;;;;3.30;3.00;;;;;;;;;;5049478;28;20205;-80
2023/05/26 10:44:45;;;;;;;6.90;2.57;;;;;;;;;;5049817;28;20316;-80
2023/05/26 10:47:15;;;;;;;3.07;2.53;;;;;;;;;;5048866;28;20233;-80
2023/05/26 10:49:56;;;;;;;2.77;2.57;;;;;;;;;;5049578;28;20823;-80
2023/05/26 10:52:23;;;;;;;2.67;2.47;;;;;;;;;;5049422;28;20276;-80
2023/05/26 10:54:51;;;;;;;3.83;3.03;;;;;;;;;;5048853;28;20206;-80
2023/05/26 10:57:31;;;;;;;2.60;2.40;;;;;;;;;;5048723;28;20198;-80
2023/05/26 10:59:58;;;;;;;2.90;2.70;;;;;;;;;;5049122;28;20689;-80
2023/05/26 11:02:24;;;;;;;2.67;2.47;;;;;;;;;;5049391;28;20210;-79
2023/05/26 11:04:52;;;;;;;2.77;2.57;;;;;;;;;;5048899;28;20604;-79
2023/05/26 11:07:23;;;;;;;3.30;3.00;;;;;;;;;;5049009;28;20597;-79
2023/05/26 11:10:02;;;;;;;4.40;2.93;;;;;;;;;;5049013;28;20204;-79
2023/05/26 11:12:32;;;;;;;2.70;2.50;;;;;;;;;;5049028;28;20225;-80
2023/05/26 11:14:59;;;;;;;2.80;2.53;;;;;;;;;;5048229;28;20289;-79
2023/05/26 11:17:26;;;;;;;2.70;2.50;;;;;;;;;;5048164;28;20213;-80
2023/05/26 11:19:59;;;;;;;4.53;2.60;;;;;;;;;;5048580;28;20198;-79
2023/05/26 11:22:27;;;;;;;2.93;2.70;;;;;;;;;;5048728;28;20681;-80
2023/05/26 11:24:56;;;;;;;4.43;3.10;;;;;;;;;;5048908;28;20290;-79
2023/05/26 11:27:25;;;;;;;3.20;2.90;;;;;;;;;;5048928;28;20206;-80
2023/05/26 11:29:59;;;;;;;4.37;2.63;;;;;;;;;;5049316;28;20213;-79
2023/05/26 11:32:25;;;;;;;2.30;2.10;;;;;;;;;;5048465;28;20198;-79
2023/05/26 11:34:52;;;;;;;4.00;2.83;;;;;;;;;;5048759;28;20627;-79
2023/05/26 11:37:22;;;;;;;2.30;2.20;;;;;;;;;;5048116;28;20206;-79
2023/05/26 11:39:49;;;;;;;5.30;2.73;;;;;;;;;;5048954;28;20208;-79
2023/05/26 11:42:16;;;;;;;2.87;2.67;;;;;;;;;;5048805;28;20202;-79
2023/05/26 11:44:44;;;;;;;5.13;2.50;;;;;;;;;;5048798;28;20316;-79
2023/05/26 11:47:14;;;;;;;5.23;2.67;;;;;;;;;;5048066;28;20229;-79
2023/05/26 11:49:45;;;;;;;2.97;2.67;;;;;;;;;;5048402;28;20301;-78
2023/05/26 11:52:16;;;;;;;5.77;2.87;;;;;;;;;;5047878;28;20206;-79
2023/05/26 11:54:44;;;;;;;3.37;2.90;;;;;;;;;;5048044;28;20594;-78
2023/05/26 11:57:23;;;;;;;4.63;2.97;;;;;;;;;;5036255;28;20198;-79
2023/05/26 11:59:53;;;;;;;2.90;2.70;;;;;;;;;;5048734;28;20198;-79
2023/05/26 12:02:19;;;;;;;3.70;2.53;;;;;;;;;;5048134;28;20270;-78
2023/05/26 12:04:46;;;;;;;3.77;2.70;;;;;;;;;;5047822;28;20278;-79
2023/05/26 12:07:24;;;;;;;3.20;2.90;;;;;;;;;;5048048;28;20205;-79
2023/05/26 12:10:04;;;;;;;4.83;3.70;;;;;;;;;;5048107;28;20197;-79
2023/05/26 12:12:33;;;;;;;3.60;2.67;;;;;;;;;;5047713;28;20261;-79
2023/05/26 12:15:09;;;;;;;2.70;2.33;;;;;;;;;;5048312;28;20287;-79
2023/05/26 12:17:36;;;;;;;3.13;2.83;;;;;;;;;;5047883;28;20198;-78
2023/05/26 12:20:05;;;;;;;3.20;2.90;;;;;;;;;;5047633;28;20201;-79
2023/05/26 12:22:31;;;;;;;3.63;3.20;;;;;;;;;;5046892;28;20202;-79
2023/05/26 12:24:59;;;;;;;4.63;3.00;;;;;;;;;;5047751;28;20237;-78
2023/05/26 12:27:37;;;;;;;3.23;3.03;;;;;;;;;;5047806;28;20258;-78
2023/05/26 12:30:18;;;;;;;5.63;2.67;;;;;;;;;;5048199;28;20324;-78
2023/05/26 12:32:45;;;;;;;3.60;2.57;;;;;;;;;;5046596;28;20233;-78
2023/05/26 12:35:11;;;;;;;3.27;2.97;;;;;;;;;;5035117;28;20290;-78
2023/05/26 12:37:38;;;;;;;4.90;3.70;;;;;;;;;;5046632;28;20202;-79
2023/05/26 12:40:06;;;;;;;2.93;2.63;;;;;;;;;;5047341;28;20213;-79
2023/05/26 12:42:33;;;;;;;2.67;2.47;;;;;;;;;;5046704;28;20684;-78
2023/05/26 12:45:01;;;;;;;3.87;3.10;;;;;;;;;;5047728;28;20244;-78
2023/05/26 12:47:28;;;;;;;3.83;2.57;;;;;;;;;;5035140;28;20226;-78
2023/05/26 12:49:54;;;;;;;3.27;3.07;;;;;;;;;;5047105;28;20213;-78
2023/05/26 12:52:22;;;;;;;3.90;3.50;;;;;;;;;;5047467;28;20210;-78
2023/05/26 12:54:48;;;;;;;5.37;3.50;;;;;;;;;;5047564;28;20715;-79
2023/05/26 12:57:15;;;;;;;6.40;2.70;;;;;;;;;;5047392;28;20203;-78
2023/05/26 12:59:45;;;;;;;2.90;2.70;;;;;;;;;;5047219;28;20205;-79
2023/05/26 13:02:13;;;;;;;3.43;3.13;;;;;;;;;;5047121;28;20225;-78
2023/05/26 13:04:40;;;;;;;5.70;4.57;;;;;;;;;;5047120;28;20729;-78
2023/05/26 13:07:08;;;;;;;2.53;2.33;;;;;;;;;;5046998;28;20209;-78
2023/05/26 13:09:34;;;;;;;4.07;2.77;;;;;;;;;;5047336;28;20266;-78
2023/05/26 13:12:02;;;;;;;4.77;3.00;;;;;;;;;;5047048;28;20205;-79
2023/05/26 13:14:29;;;;;;;4.47;2.78;;;;;;;;;;5047311;28;20209;-78
2023/05/26 13:16:55;;;;;;;2.63;2.43;;;;;;;;;;5047737;28;20205;-78
2023/05/26 13:19:24;;;;;;;2.93;2.40;;;;;;;;;;5046267;28;20217;-78
2023/05/26 13:21:51;;;;;;;2.93;2.57;;;;;;;;;;5047066;28;20210;-78
2023/05/26 13:24:18;;;;;;;3.63;2.57;;;;;;;;;;5046417;28;20229;-78
2023/05/26 13:26:45;;;;;;;2.70;2.50;;;;;;;;;;5046601;28;20219;-78
2023/05/26 13:29:11;;;;;;;3.13;2.80;;;;;;;;;;5043983;28;20730;-78
2023/05/26 13:31:38;;;;;;;4.10;2.43;;;;;;;;;;5037039;28;20195;-78
2023/05/26 13:34:05;;;;;;;4.27;2.50;;;;;;;;;;5046595;28;20206;-78
2023/05/26 13:36:33;;;;;;;3.70;3.33;;;;;;;;;;5046961;28;20748;-77
2023/05/26 13:39:00;;;;;;;3.73;3.10;;;;;;;;;;5050521;28;20206;-77
2023/05/26 13:41:27;;;;;;;4.63;3.40;;;;;;;;;;5049934;28;20737;-77
2023/05/26 13:43:53;;;;;;;5.50;3.10;;;;;;;;;;5049784;28;20297;-77
2023/05/26 13:46:21;;;;;;;7.23;3.10;;;;;;;;;;5050139;28;20271;-77
2023/05/26 13:48:47;;;;;;;2.83;2.50;;;;;;;;;;5049725;28;20282;-77
2023/05/26 13:51:16;;;;;;;2.80;2.60;;;;;;;;;;5049944;28;20198;-77
2023/05/26 13:53:44;;;;;;;3.97;3.00;;;;;;;;;;5049576;28;20694;-77
2023/05/26 13:56:10;;;;;;;2.97;2.77;;;;;;;;;;5049867;28;20251;-78
2023/05/26 13:58:37;;;;;;;4.70;2.87;;;;;;;;;;5049425;28;20198;-77
2023/05/26 14:01:04;;;;;;;4.67;4.27;;;;;;;;;;5050306;28;20209;-78
2023/05/26 14:03:30;;;;;;;3.60;2.97;;;;;;;;;;5049328;28;20630;-77
2023/05/26 14:05:57;;;;;;;3.20;2.90;;;;;;;;;;5050319;28;20292;-77
2023/05/26 14:08:24;;;;;;;9.47;3.87;;;;;;;;;;5049541;28;20202;-78
2023/05/26 14:10:52;;;;;;;6.03;3.47;;;;;;;;;;5047168;28;20612;-78
2023/05/26 14:13:19;;;;;;;6.90;4.77;;;;;;;;;;5036024;28;20198;-77
2023/05/26 14:15:48;;;;;;;11.60;5.43;;;;;;;;;;5040454;28;20218;-77
2023/05/26 14:18:18;;;;;;;4.57;2.47;;;;;;;;;;5035856;28;20284;-78
2023/05/26 14:20:48;;;;;;;15.00;5.23;;;;;;;;;;5037911;28;20204;-79
2023/05/26 14:23:15;;;;;;;7.30;2.70;;;;;;;;;;5032334;28;20290;-78
2023/05/26 14:25:42;;;;;;;13.57;7.77;;;;;;;;;;5043808;28;20743;-78
2023/05/26 14:28:10;;;;;;;65.27;36.67;;;;;;;;;;5049163;28;20289;-78
2023/05/26 14:30:37;;;;;;;31.17;18.50;;;;;;;;;;5049779;28;20213;-78
2023/05/26 14:33:06;;;;;;;36.33;23.90;;;;;;;;;;5049212;28;20202;-78
2023/05/26 14:35:33;;;;;;;13.33;8.00;;;;;;;;;;5044343;28;20210;-78
2023/05/26 14:37:59;;;;;;;4.93;4.40;;;;;;;;;;5049015;28;20684;-78
2023/05/26 14:40:28;;;;;;;4.07;3.07;;;;;;;;;;5048383;28;20217;-79
2023/05/26 14:42:54;;;;;;;5.70;5.30;;;;;;;;;;5048793;28;20633;-79
2023/05/26 14:45:22;;;;;;;3.40;2.97;;;;;;;;;;5048765;28;20225;-79
2023/05/26 14:47:49;;;;;;;2.97;2.77;;;;;;;;;;5048701;28;20302;-79